Time;durP1;ratioP1;P1;durP2;ratioP2;P2;SDS_P1;SDS_P2;PMS_P1;PMS_P2;Temp;Humidity;BMP_temperature;BMP_pressure;BME280_temperature;BME280_humidity;BME280_pressure;Samples;Min_cycle;Max_cycle;Signal;HPM_P1;HPM_P2
2021/11/15 00:02:13;;;;;;;29.40;13.73;;;9.70;99.90;;;;;;5096012;28;20095;-75
2021/11/15 00:04:39;;;;;;;26.45;14.07;;;9.70;99.90;;;;;;5078799;28;20028;-75
2021/11/15 00:07:05;;;;;;;33.42;13.95;;;9.70;99.90;;;;;;5096865;28;20020;-71
2021/11/15 00:09:31;;;;;;;30.58;12.02;;;9.80;99.90;;;;;;5075525;28;20051;-68
2021/11/15 00:11:57;;;;;;;24.70;13.05;;;9.80;99.90;;;;;;5092566;28;20066;-70
2021/11/15 00:14:22;;;;;;;22.80;12.23;;;9.80;99.90;;;;;;5092316;28;20032;-66
2021/11/15 00:16:48;;;;;;;27.98;12.95;;;9.80;99.90;;;;;;5093718;28;20052;-66
2021/11/15 00:19:14;;;;;;;28.63;13.48;;;9.80;99.90;;;;;;5092575;28;20024;-65
2021/11/15 00:21:40;;;;;;;30.15;14.70;;;10.00;99.90;;;;;;5092328;28;20020;-67
2021/11/15 00:24:06;;;;;;;30.17;13.25;;;9.90;99.90;;;;;;5092491;28;20032;-67
2021/11/15 00:26:32;;;;;;;22.50;12.07;;;9.90;99.90;;;;;;5092200;28;20036;-67
2021/11/15 00:28:58;;;;;;;25.10;12.18;;;9.90;99.90;;;;;;5092081;28;20048;-69
2021/11/15 00:31:24;;;;;;;28.70;14.35;;;9.90;99.90;;;;;;5075370;28;20521;-68
2021/11/15 00:33:51;;;;;;;26.05;12.43;;;10.00;99.90;;;;;;5092373;28;20051;-66
2021/11/15 00:36:17;;;;;;;28.42;14.13;;;10.00;99.90;;;;;;5075253;28;20107;-70
2021/11/15 00:38:43;;;;;;;24.83;13.18;;;10.00;99.90;;;;;;5092130;28;20506;-66
2021/11/15 00:41:09;;;;;;;23.77;12.65;;;10.00;99.90;;;;;;5092164;28;20036;-65
2021/11/15 00:43:35;;;;;;;28.65;13.63;;;9.90;99.90;;;;;;5093564;28;20032;-67
2021/11/15 00:46:00;;;;;;;30.60;13.93;;;9.90;99.90;;;;;;5075132;28;20069;-66
2021/11/15 00:48:26;;;;;;;29.63;13.43;;;9.80;99.90;;;;;;5093225;28;20036;-66
2021/11/15 00:50:52;;;;;;;32.42;15.02;;;9.80;99.90;;;;;;5081353;28;20379;-76
2021/11/15 00:53:18;;;;;;;36.33;15.00;;;9.90;99.90;;;;;;5098467;28;20024;-79
2021/11/15 00:55:43;;;;;;;32.30;14.60;;;9.80;99.90;;;;;;5095817;28;20408;-78
2021/11/15 00:58:09;;;;;;;27.17;13.50;;;9.80;99.90;;;;;;5098344;28;20063;-74
2021/11/15 01:00:37;;;;;;;32.40;14.75;;;9.70;99.90;;;;;;5099130;28;20028;-76
2021/11/15 01:03:06;;;;;;;28.48;13.68;;;9.70;99.90;;;;;;5101288;28;20470;-77
2021/11/15 01:05:34;;;;;;;34.97;15.13;;;9.80;99.90;;;;;;5102226;28;20078;-76
2021/11/15 01:07:59;;;;;;;32.58;14.05;;;9.80;99.90;;;;;;5083830;28;20020;-78
2021/11/15 01:10:25;;;;;;;26.27;14.18;;;9.80;99.90;;;;;;5098846;28;20478;-75
2021/11/15 01:12:51;;;;;;;33.72;14.32;;;9.80;99.90;;;;;;5098942;28;20020;-75
2021/11/15 01:15:21;;;;;;;29.60;15.13;;;9.80;99.90;;;;;;5099024;28;20501;-76
2021/11/15 01:17:48;;;;;;;32.65;14.25;;;9.80;99.90;;;;;;5080230;28;20027;-77
2021/11/15 01:20:15;;;;;;;29.60;14.13;;;9.80;99.90;;;;;;5080552;28;20020;-75
2021/11/15 01:22:41;;;;;;;30.70;14.48;;;9.70;99.90;;;;;;5079506;28;20024;-76
2021/11/15 01:25:08;;;;;;;29.33;15.27;;;9.70;99.90;;;;;;5079451;28;20024;-75
2021/11/15 01:27:34;;;;;;;27.70;15.00;;;9.70;99.90;;;;;;5079446;28;20127;-73
2021/11/15 01:29:59;;;;;;;34.30;15.50;;;9.60;99.90;;;;;;5095833;28;20210;-75
2021/11/15 01:32:25;;;;;;;33.92;15.30;;;9.60;99.90;;;;;;5096533;28;20094;-74
2021/11/15 01:34:51;;;;;;;30.83;14.88;;;9.70;99.90;;;;;;5078807;28;20050;-73
2021/11/15 01:37:17;;;;;;;29.48;14.15;;;9.60;99.90;;;;;;5097113;28;20458;-73
2021/11/15 01:39:44;;;;;;;33.60;14.88;;;9.60;99.90;;;;;;5078737;28;20066;-71
2021/11/15 01:42:10;;;;;;;27.77;13.40;;;9.60;99.90;;;;;;5095454;28;20032;-70
2021/11/15 01:44:35;;;;;;;32.70;14.35;;;9.60;99.90;;;;;;5095539;28;20036;-70
2021/11/15 01:47:02;;;;;;;29.17;14.02;;;9.60;99.90;;;;;;5078358;28;20027;-69
2021/11/15 01:49:27;;;;;;;23.35;12.30;;;9.70;99.90;;;;;;5078256;28;20085;-71
2021/11/15 01:51:53;;;;;;;28.52;13.18;;;9.70;99.90;;;;;;5095355;28;20103;-73
2021/11/15 01:54:19;;;;;;;29.15;14.80;;;9.60;99.90;;;;;;5095075;28;20447;-75
2021/11/15 01:56:44;;;;;;;25.67;13.68;;;9.60;99.90;;;;;;5095365;28;20031;-69
2021/11/15 01:59:10;;;;;;;26.42;12.40;;;9.70;99.90;;;;;;5095331;28;20035;-72
2021/11/15 02:01:36;;;;;;;28.25;14.30;;;9.70;99.90;;;;;;5095226;28;20016;-73
2021/11/15 02:04:01;;;;;;;26.10;12.25;;;9.70;99.90;;;;;;5096692;28;20475;-76
2021/11/15 02:06:28;;;;;;;24.50;11.95;;;9.70;99.90;;;;;;5095514;28;20077;-76
2021/11/15 02:08:54;;;;;;;26.27;13.02;;;9.70;99.90;;;;;;5078828;28;20036;-77
2021/11/15 02:11:19;;;;;;;29.67;14.88;;;9.70;99.90;;;;;;5095462;28;20046;-77
2021/11/15 02:13:45;;;;;;;25.80;12.10;;;9.70;99.90;;;;;;5061222;28;20557;-75
2021/11/15 02:16:11;;;;;;;24.42;12.95;;;9.60;99.90;;;;;;5096456;28;20024;-77
2021/11/15 02:18:37;;;;;;;30.00;13.52;;;9.60;99.90;;;;;;5096185;28;20031;-75
2021/11/15 02:21:05;;;;;;;25.20;12.38;;;9.50;99.90;;;;;;5078290;28;20113;-76
2021/11/15 02:23:34;;;;;;;25.88;13.85;;;9.60;99.90;;;;;;5078007;28;20024;-77
2021/11/15 02:26:02;;;;;;;26.52;13.70;;;9.60;99.90;;;;;;5094944;28;20490;-76
2021/11/15 02:28:33;;;;;;;33.05;14.27;;;9.60;99.90;;;;;;5094916;28;20044;-76
2021/11/15 02:30:59;;;;;;;24.80;12.93;;;9.60;99.90;;;;;;5094859;28;20099;-78
2021/11/15 02:33:28;;;;;;;24.90;12.73;;;9.70;99.90;;;;;;5095051;28;20035;-76
2021/11/15 02:35:54;;;;;;;28.85;11.98;;;9.70;99.90;;;;;;5078365;28;20032;-77
2021/11/15 02:38:20;;;;;;;24.15;12.93;;;9.50;99.90;;;;;;5095922;28;20107;-76
2021/11/15 02:40:46;;;;;;;25.88;12.70;;;9.50;99.90;;;;;;5094491;28;20062;-76
2021/11/15 02:43:12;;;;;;;24.75;12.38;;;9.50;99.90;;;;;;5077691;28;20048;-76
2021/11/15 02:45:38;;;;;;;25.95;13.18;;;9.50;99.90;;;;;;5094347;28;20407;-69
2021/11/15 02:48:04;;;;;;;23.13;11.27;;;9.60;99.90;;;;;;5095593;28;20028;-71
2021/11/15 02:50:32;;;;;;;25.15;12.57;;;9.60;99.90;;;;;;5094227;28;20092;-70
2021/11/15 02:53:08;;;;;;;24.88;11.77;;;9.60;99.90;;;;;;5094205;28;20020;-72
2021/11/15 02:55:35;;;;;;;21.27;12.52;;;9.60;99.90;;;;;;5095291;28;20016;-67
2021/11/15 02:58:04;;;;;;;22.30;11.93;;;9.50;99.90;;;;;;5094447;28;20028;-72
2021/11/15 03:00:37;;;;;;;25.80;12.57;;;9.50;99.90;;;;;;5094025;28;20020;-72
2021/11/15 03:03:03;;;;;;;21.48;10.82;;;9.40;99.90;;;;;;5094196;28;20107;-71
2021/11/15 03:05:32;;;;;;;20.52;10.63;;;9.40;99.90;;;;;;5093928;28;20491;-70
2021/11/15 03:07:59;;;;;;;20.95;11.43;;;9.30;99.90;;;;;;5077008;28;20474;-69
2021/11/15 03:10:25;;;;;;;21.80;12.43;;;9.30;99.90;;;;;;5076830;28;20038;-72
2021/11/15 03:12:51;;;;;;;22.50;11.18;;;9.20;99.90;;;;;;5095438;28;20123;-74
2021/11/15 03:15:22;;;;;;;18.88;11.02;;;9.20;99.90;;;;;;5093655;28;20032;-69
2021/11/15 03:17:58;;;;;;;20.98;10.68;;;9.20;99.90;;;;;;5093378;28;20478;-72
2021/11/15 03:20:38;;;;;;;27.13;11.07;;;9.10;99.90;;;;;;5076767;28;20390;-75
2021/11/15 03:23:08;;;;;;;18.10;11.35;;;9.10;99.90;;;;;;5094367;28;20111;-76
2021/11/15 03:25:34;;;;;;;21.90;11.48;;;9.10;99.90;;;;;;5092753;28;20017;-76
2021/11/15 03:28:00;;;;;;;17.58;10.13;;;9.10;99.90;;;;;;5093254;28;20031;-77
2021/11/15 03:30:26;;;;;;;17.90;10.90;;;9.10;99.90;;;;;;5076366;28;20028;-77
2021/11/15 03:32:52;;;;;;;21.33;10.90;;;9.10;99.90;;;;;;5093409;28;20038;-74
2021/11/15 03:35:18;;;;;;;21.13;10.20;;;9.10;99.90;;;;;;5093664;28;20062;-76
2021/11/15 03:37:44;;;;;;;19.67;10.23;;;9.20;99.90;;;;;;5095428;28;20028;-76
2021/11/15 03:40:14;;;;;;;23.63;10.70;;;9.20;99.90;;;;;;5099761;28;20016;-77
2021/11/15 03:42:44;;;;;;;20.55;10.10;;;9.20;99.90;;;;;;5087034;28;20123;-77
2021/11/15 03:45:11;;;;;;;18.35;10.43;;;9.20;99.90;;;;;;5106233;28;20020;-76
2021/11/15 03:47:37;;;;;;;15.23;9.48;;;9.20;99.90;;;;;;5089225;28;20501;-76
2021/11/15 03:50:04;;;;;;;19.90;10.52;;;9.20;99.90;;;;;;5090690;28;20099;-76
2021/11/15 03:52:30;;;;;;;17.85;10.20;;;9.20;99.90;;;;;;5095222;28;20028;-75
2021/11/15 03:54:55;;;;;;;14.30;8.85;;;9.20;99.90;;;;;;5076143;28;20490;-73
2021/11/15 03:57:21;;;;;;;14.50;9.20;;;9.10;99.90;;;;;;5092985;28;20024;-72
2021/11/15 03:59:47;;;;;;;12.25;8.57;;;9.10;99.90;;;;;;5092556;28;20028;-71
2021/11/15 04:02:13;;;;;;;14.13;8.80;;;9.10;99.90;;;;;;5092443;28;20028;-73
2021/11/15 04:04:50;;;;;;;17.33;9.45;;;9.10;99.90;;;;;;5092572;28;20028;-71
2021/11/15 04:07:27;;;;;;;12.68;8.45;;;9.10;99.90;;;;;;5092715;28;20024;-73
2021/11/15 04:09:55;;;;;;;16.00;8.20;;;9.00;99.90;;;;;;5076587;28;20028;-73
2021/11/15 04:12:21;;;;;;;16.42;10.02;;;9.00;99.90;;;;;;5092617;28;20012;-73
2021/11/15 04:14:46;;;;;;;14.15;9.23;;;9.00;99.90;;;;;;5075470;28;20035;-72
2021/11/15 04:17:12;;;;;;;14.25;9.15;;;9.00;99.90;;;;;;5092700;28;20028;-73
2021/11/15 04:19:38;;;;;;;15.32;9.23;;;9.00;99.90;;;;;;5092293;28;20060;-71
2021/11/15 04:22:03;;;;;;;15.05;9.13;;;9.10;99.90;;;;;;5092268;28;20024;-74
2021/11/15 04:24:29;;;;;;;12.98;8.48;;;9.10;99.90;;;;;;5075333;28;20036;-74
2021/11/15 04:26:55;;;;;;;12.82;8.43;;;9.10;99.90;;;;;;5091994;28;20024;-70
2021/11/15 04:29:20;;;;;;;15.60;9.90;;;9.20;99.90;;;;;;5075114;28;20090;-70
2021/11/15 04:31:46;;;;;;;17.10;9.13;;;9.20;99.90;;;;;;5093410;28;20024;-73
2021/11/15 04:34:11;;;;;;;17.33;9.77;;;9.20;99.90;;;;;;5092312;28;20032;-72
2021/11/15 04:36:39;;;;;;;14.65;8.48;;;9.20;99.90;;;;;;5075116;28;20016;-72
2021/11/15 04:39:04;;;;;;;17.63;10.18;;;9.20;99.90;;;;;;5075301;28;20544;-73
2021/11/15 04:41:30;;;;;;;15.50;10.15;;;9.20;99.90;;;;;;5092028;28;20028;-76
2021/11/15 04:43:55;;;;;;;17.25;10.32;;;9.30;99.90;;;;;;5075326;28;20127;-74
2021/11/15 04:46:21;;;;;;;17.65;9.50;;;9.30;99.90;;;;;;5092286;28;20098;-74
2021/11/15 04:48:48;;;;;;;18.23;10.32;;;9.20;99.90;;;;;;5092470;28;20039;-76
2021/11/15 04:51:14;;;;;;;17.98;11.20;;;9.20;99.90;;;;;;5059111;28;20127;-75
2021/11/15 04:53:39;;;;;;;16.85;9.00;;;9.10;99.90;;;;;;5075425;28;20103;-77
2021/11/15 04:56:07;;;;;;;16.95;10.30;;;9.10;99.90;;;;;;5092071;28;20032;-75
2021/11/15 04:58:33;;;;;;;16.42;9.55;;;9.10;99.90;;;;;;5075377;28;20471;-75
2021/11/15 05:00:59;;;;;;;16.33;10.25;;;9.10;99.90;;;;;;5075130;28;20024;-77
2021/11/15 05:03:24;;;;;;;14.82;9.25;;;9.10;99.90;;;;;;5075229;28;20043;-74
2021/11/15 05:05:50;;;;;;;14.60;9.82;;;9.10;99.90;;;;;;5075055;28;20043;-76
2021/11/15 05:08:15;;;;;;;15.80;9.82;;;9.10;99.90;;;;;;5091979;28;20107;-74
2021/11/15 05:10:42;;;;;;;12.98;9.00;;;9.10;99.90;;;;;;5074994;28;20505;-75
2021/11/15 05:13:07;;;;;;;15.88;9.73;;;9.10;99.90;;;;;;5092082;28;20542;-76
2021/11/15 05:15:33;;;;;;;14.95;8.30;;;9.10;99.90;;;;;;5075263;28;20052;-75
2021/11/15 05:17:59;;;;;;;12.05;6.72;;;9.00;99.90;;;;;;5091910;28;20016;-71
2021/11/15 05:20:25;;;;;;;15.68;8.30;;;8.90;99.90;;;;;;5091814;28;20028;-69
2021/11/15 05:22:51;;;;;;;10.82;7.72;;;9.00;99.90;;;;;;5092957;28;20023;-73
2021/11/15 05:25:17;;;;;;;13.13;8.77;;;8.90;99.90;;;;;;5074854;28;20428;-72
2021/11/15 05:27:43;;;;;;;12.82;8.88;;;8.80;99.90;;;;;;5074896;28;20111;-65
2021/11/15 05:30:11;;;;;;;10.27;6.70;;;8.80;99.90;;;;;;5092661;28;20467;-71
2021/11/15 05:32:36;;;;;;;11.45;6.50;;;8.80;99.90;;;;;;5092683;28;20028;-74
2021/11/15 05:35:03;;;;;;;14.32;7.90;;;8.80;99.90;;;;;;5091610;28;20450;-72
2021/11/15 05:37:30;;;;;;;12.05;7.22;;;8.80;99.90;;;;;;5091620;28;20024;-72
2021/11/15 05:39:55;;;;;;;12.13;7.70;;;8.90;99.90;;;;;;5074667;28;20421;-71
2021/11/15 05:42:21;;;;;;;12.65;7.95;;;8.90;99.90;;;;;;5091603;28;20077;-73
2021/11/15 05:44:47;;;;;;;10.80;6.72;;;8.90;99.90;;;;;;5092711;28;20031;-74
2021/11/15 05:47:13;;;;;;;9.60;6.85;;;8.90;99.90;;;;;;5091523;28;20379;-72
2021/11/15 05:49:38;;;;;;;11.18;7.30;;;8.90;99.90;;;;;;5094187;28;20036;-73
2021/11/15 05:52:04;;;;;;;13.10;7.88;;;8.90;99.90;;;;;;5095386;28;20032;-74
2021/11/15 05:54:30;;;;;;;11.48;7.05;;;8.90;99.90;;;;;;5095928;28;20082;-75
2021/11/15 05:56:56;;;;;;;11.50;7.35;;;8.90;99.90;;;;;;5096691;28;20032;-76
2021/11/15 05:59:21;;;;;;;15.80;8.00;;;8.90;99.90;;;;;;5096515;28;20035;-75
2021/11/15 06:01:47;;;;;;;10.50;6.93;;;8.80;99.90;;;;;;5095379;28;20020;-75
2021/11/15 06:04:13;;;;;;;10.63;6.10;;;8.70;99.90;;;;;;5095337;28;20028;-78
2021/11/15 06:06:39;;;;;;;8.98;6.38;;;8.70;99.90;;;;;;5078399;28;20029;-75
2021/11/15 06:09:04;;;;;;;10.57;6.75;;;8.80;99.90;;;;;;5095426;28;20028;-77
2021/11/15 06:11:30;;;;;;;12.55;6.85;;;8.80;99.90;;;;;;5095244;28;20050;-73
2021/11/15 06:13:56;;;;;;;13.05;6.88;;;8.80;99.90;;;;;;5095947;28;20020;-71
2021/11/15 06:16:21;;;;;;;9.18;6.75;;;8.80;99.90;;;;;;5096296;28;20476;-75
2021/11/15 06:18:47;;;;;;;8.70;6.22;;;8.80;99.90;;;;;;5078024;28;20476;-76
2021/11/15 06:21:14;;;;;;;9.68;6.28;;;8.70;99.90;;;;;;5096203;28;20107;-75
2021/11/15 06:23:39;;;;;;;10.07;5.88;;;8.70;99.90;;;;;;5094880;28;20039;-71
2021/11/15 06:26:05;;;;;;;9.07;5.45;;;8.70;99.90;;;;;;5096224;28;20478;-75
2021/11/15 06:28:30;;;;;;;5.65;4.93;;;8.70;99.90;;;;;;5094470;28;20166;-65
2021/11/15 06:30:56;;;;;;;7.43;5.55;;;8.70;99.90;;;;;;5094773;28;20024;-72
2021/11/15 06:33:22;;;;;;;11.40;6.35;;;8.60;99.90;;;;;;5096203;28;20035;-72
2021/11/15 06:35:47;;;;;;;9.60;6.75;;;8.60;99.90;;;;;;5094688;28;20024;-74
2021/11/15 06:38:13;;;;;;;11.02;6.80;;;8.70;99.90;;;;;;5077875;28;20122;-73
2021/11/15 06:40:40;;;;;;;11.25;6.18;;;8.70;99.90;;;;;;5095608;28;20062;-74
2021/11/15 06:43:06;;;;;;;9.73;7.25;;;8.70;99.90;;;;;;5094450;28;20087;-74
2021/11/15 06:45:33;;;;;;;10.65;7.03;;;8.70;99.90;;;;;;5094299;28;20171;-74
2021/11/15 06:47:59;;;;;;;11.38;6.47;;;8.70;99.90;;;;;;5077432;28;20433;-65
2021/11/15 06:50:24;;;;;;;8.38;6.18;;;8.60;99.90;;;;;;5094163;28;20058;-75
2021/11/15 06:52:50;;;;;;;8.25;5.65;;;8.60;99.90;;;;;;5095436;28;20389;-73
2021/11/15 06:55:22;;;;;;;9.65;6.38;;;8.70;99.90;;;;;;5094066;28;20432;-73
2021/11/15 06:57:49;;;;;;;9.82;6.25;;;8.60;99.90;;;;;;5077198;28;20069;-71
2021/11/15 07:00:19;;;;;;;9.45;6.40;;;8.60;99.90;;;;;;5076922;28;20047;-75
2021/11/15 07:02:45;;;;;;;9.68;6.47;;;8.60;99.90;;;;;;5093781;28;20472;-73
2021/11/15 07:05:14;;;;;;;10.48;6.60;;;8.60;99.90;;;;;;5094311;28;20493;-76
2021/11/15 07:07:39;;;;;;;10.02;7.38;;;8.50;99.90;;;;;;5095333;28;20024;-74
2021/11/15 07:10:07;;;;;;;9.52;7.43;;;8.50;99.90;;;;;;5093939;28;20032;-75
2021/11/15 07:12:33;;;;;;;11.05;7.30;;;8.50;99.90;;;;;;5076861;28;20023;-76
2021/11/15 07:14:59;;;;;;;9.38;6.45;;;8.60;99.90;;;;;;5093697;28;20028;-74
2021/11/15 07:17:24;;;;;;;10.05;6.82;;;8.60;99.90;;;;;;5093608;28;20020;-74
2021/11/15 07:19:50;;;;;;;12.55;8.25;;;8.70;99.90;;;;;;5093618;28;20482;-75
2021/11/15 07:22:15;;;;;;;7.80;5.40;;;8.70;99.90;;;;;;5076884;28;20024;-78
2021/11/15 07:24:41;;;;;;;12.98;6.95;;;8.70;99.90;;;;;;5077246;28;20024;-76
2021/11/15 07:27:07;;;;;;;13.20;7.28;;;8.70;99.90;;;;;;5094970;28;20097;-76
2021/11/15 07:29:32;;;;;;;9.65;6.93;;;8.70;99.90;;;;;;5076453;28;20391;-65
2021/11/15 07:31:59;;;;;;;10.07;7.30;;;8.70;99.90;;;;;;5093199;28;20028;-67
2021/11/15 07:34:27;;;;;;;10.98;8.27;;;8.70;99.90;;;;;;5093148;28;20098;-68
2021/11/15 07:36:54;;;;;;;12.98;7.93;;;8.60;99.90;;;;;;5093334;28;20562;-66
2021/11/15 07:39:20;;;;;;;10.68;7.70;;;8.70;99.90;;;;;;5093352;28;20028;-65
2021/11/15 07:41:45;;;;;;;14.05;8.25;;;8.60;99.90;;;;;;5093618;28;20597;-68
2021/11/15 07:44:11;;;;;;;16.38;8.23;;;8.60;99.90;;;;;;5076379;28;20028;-69
2021/11/15 07:46:36;;;;;;;12.65;8.90;;;8.70;99.90;;;;;;5093688;28;20024;-65
2021/11/15 07:49:02;;;;;;;14.90;8.35;;;8.70;99.90;;;;;;5093485;28;20107;-64
2021/11/15 07:51:28;;;;;;;12.57;8.45;;;8.80;99.90;;;;;;5078563;28;20489;-65
2021/11/15 07:53:54;;;;;;;12.18;8.00;;;8.80;99.90;;;;;;5094066;28;20028;-66
2021/11/15 07:56:19;;;;;;;12.68;8.77;;;8.70;99.90;;;;;;5094078;28;20028;-69
2021/11/15 07:58:45;;;;;;;15.15;9.00;;;8.80;99.90;;;;;;5075981;28;20062;-67
2021/11/15 08:01:11;;;;;;;13.43;8.70;;;8.80;99.90;;;;;;5094164;28;20065;-70
2021/11/15 08:03:41;;;;;;;12.02;8.13;;;8.80;99.90;;;;;;5092752;28;20070;-68
2021/11/15 08:06:09;;;;;;;11.13;7.60;;;8.80;99.90;;;;;;5093057;28;20624;-74
2021/11/15 08:08:36;;;;;;;12.90;9.15;;;8.80;99.90;;;;;;5076834;28;20028;-72
2021/11/15 08:11:02;;;;;;;14.32;8.80;;;8.70;99.90;;;;;;5093965;28;20024;-76
2021/11/15 08:13:27;;;;;;;15.68;8.63;;;8.80;99.90;;;;;;5093238;28;20028;-75
2021/11/15 08:15:53;;;;;;;16.35;9.07;;;8.80;99.90;;;;;;5093079;28;20475;-76
2021/11/15 08:18:19;;;;;;;14.52;9.45;;;8.80;99.90;;;;;;5093089;28;20043;-75
2021/11/15 08:20:45;;;;;;;14.32;8.88;;;8.80;99.90;;;;;;5092992;28;20028;-72
2021/11/15 08:23:14;;;;;;;16.55;9.38;;;8.70;99.90;;;;;;5093811;28;20019;-74
2021/11/15 08:26:17;;;;;;;14.52;9.02;;;8.70;99.90;;;;;;5093550;28;20110;-78
2021/11/15 08:28:43;;;;;;;12.93;8.77;;;8.60;99.90;;;;;;5094024;28;20579;-76
2021/11/15 08:31:10;;;;;;;16.48;9.45;;;8.70;99.90;;;;;;5094004;28;20043;-73
2021/11/15 08:33:36;;;;;;;16.77;8.73;;;8.70;99.90;;;;;;5092248;28;20039;-78
2021/11/15 08:36:02;;;;;;;13.40;8.35;;;8.80;99.90;;;;;;5092946;28;20028;-75
2021/11/15 08:38:41;;;;;;;14.38;8.95;;;8.70;99.90;;;;;;5092331;28;20027;-73
2021/11/15 08:41:08;;;;;;;13.35;7.95;;;8.80;99.90;;;;;;5092181;28;20032;-73
2021/11/15 08:43:34;;;;;;;11.25;7.40;;;8.70;99.90;;;;;;5092128;28;20016;-73
2021/11/15 08:46:00;;;;;;;13.88;8.30;;;8.70;99.90;;;;;;5092637;28;20028;-71
2021/11/15 08:48:26;;;;;;;12.35;7.75;;;8.70;99.90;;;;;;5075244;28;20439;-72
2021/11/15 08:50:51;;;;;;;12.90;7.95;;;8.60;99.90;;;;;;5092190;28;20418;-74
2021/11/15 08:53:17;;;;;;;12.93;7.93;;;8.50;99.90;;;;;;5092291;28;20029;-73
2021/11/15 08:55:43;;;;;;;13.30;7.90;;;8.50;99.90;;;;;;5093317;28;20032;-73
2021/11/15 08:58:08;;;;;;;12.43;8.02;;;8.50;99.90;;;;;;5093202;28;20028;-75
2021/11/15 09:00:35;;;;;;;11.98;7.78;;;8.50;99.90;;;;;;5093656;28;20020;-67
2021/11/15 09:03:00;;;;;;;14.63;8.95;;;8.50;99.90;;;;;;5093591;28;20076;-66
2021/11/15 09:05:26;;;;;;;13.05;8.10;;;8.50;99.90;;;;;;5075528;28;20505;-69
2021/11/15 09:07:52;;;;;;;14.32;8.50;;;8.50;99.90;;;;;;5093698;28;20117;-72
2021/11/15 09:10:18;;;;;;;20.08;8.98;;;8.50;99.90;;;;;;5092343;28;20055;-70
2021/11/15 09:12:44;;;;;;;11.13;7.90;;;8.50;99.90;;;;;;5092207;28;20024;-68
2021/11/15 09:15:11;;;;;;;13.70;8.88;;;8.60;99.90;;;;;;5092587;28;20024;-70
2021/11/15 09:17:39;;;;;;;11.85;7.78;;;8.50;99.90;;;;;;5093250;28;20013;-63
2021/11/15 09:20:07;;;;;;;15.00;8.18;;;8.40;99.90;;;;;;5092406;28;20059;-65
2021/11/15 09:22:32;;;;;;;12.85;7.60;;;8.40;99.90;;;;;;5091866;28;20024;-65
2021/11/15 09:24:58;;;;;;;12.70;8.18;;;8.40;99.90;;;;;;5094640;28;20024;-65
2021/11/15 09:27:26;;;;;;;13.18;7.57;;;8.40;99.90;;;;;;5096879;28;20028;-64
2021/11/15 09:29:52;;;;;;;15.35;7.75;;;8.40;99.90;;;;;;5097074;28;20048;-64
2021/11/15 09:32:20;;;;;;;12.75;7.95;;;8.50;99.90;;;;;;5097590;28;20016;-68
2021/11/15 09:34:45;;;;;;;14.20;8.82;;;8.50;99.90;;;;;;5081435;28;20031;-65
2021/11/15 09:37:11;;;;;;;17.63;8.82;;;8.50;99.90;;;;;;5096745;28;20028;-69
2021/11/15 09:39:44;;;;;;;14.18;8.30;;;8.50;99.90;;;;;;5096775;28;20073;-75
2021/11/15 09:42:10;;;;;;;12.90;8.20;;;8.60;99.90;;;;;;5095511;28;20486;-74
2021/11/15 09:44:36;;;;;;;13.57;8.40;;;8.60;99.90;;;;;;5095543;28;20474;-76
2021/11/15 09:47:04;;;;;;;15.52;8.43;;;8.60;99.90;;;;;;5095485;28;20023;-74
2021/11/15 09:49:30;;;;;;;15.88;8.70;;;8.50;99.90;;;;;;5078438;28;20142;-74
2021/11/15 09:51:56;;;;;;;16.30;8.38;;;8.50;99.90;;;;;;5096840;28;20390;-73
2021/11/15 09:54:22;;;;;;;13.63;8.35;;;8.50;99.90;;;;;;5078436;28;20031;-76
2021/11/15 09:56:50;;;;;;;11.63;7.38;;;8.40;99.90;;;;;;5095812;28;20095;-74
2021/11/15 09:59:16;;;;;;;16.95;8.20;;;8.40;99.90;;;;;;5078730;28;20017;-76
2021/11/15 10:01:44;;;;;;;14.98;8.90;;;8.40;99.90;;;;;;5078691;28;20404;-77
2021/11/15 10:04:12;;;;;;;16.65;8.93;;;8.40;99.90;;;;;;5078843;28;20082;-74
2021/11/15 10:06:38;;;;;;;13.25;7.80;;;8.40;99.90;;;;;;5083509;28;20016;-76
2021/11/15 10:09:04;;;;;;;17.27;8.55;;;8.40;99.90;;;;;;5099186;28;20054;-78
2021/11/15 10:11:50;;;;;;;15.20;9.18;;;8.40;99.90;;;;;;5079432;28;20028;-76
2021/11/15 10:14:16;;;;;;;19.08;9.52;;;8.40;99.90;;;;;;5095816;28;20043;-74
2021/11/15 10:17:08;;;;;;;15.63;7.30;;;8.40;99.90;;;;;;5095881;28;20039;-75
2021/11/15 10:19:34;;;;;;;15.68;8.57;;;8.40;99.90;;;;;;5095720;28;20060;-74
2021/11/15 10:22:05;;;;;;;14.52;7.85;;;8.40;99.90;;;;;;5097656;28;20028;-78
2021/11/15 10:24:35;;;;;;;20.58;8.45;;;8.30;99.90;;;;;;5100933;28;20467;-77
2021/11/15 10:27:14;;;;;;;20.08;10.13;;;8.40;99.90;;;;;;5097669;28;20031;-71
2021/11/15 10:29:42;;;;;;;20.20;10.70;;;8.30;99.90;;;;;;5080208;28;20032;-77
2021/11/15 10:32:10;;;;;;;21.10;10.48;;;8.20;99.90;;;;;;5099803;28;20028;-76
2021/11/15 10:34:50;;;;;;;17.58;8.45;;;8.30;99.90;;;;;;5100380;28;20052;-74
2021/11/15 10:37:27;;;;;;;18.08;8.75;;;8.30;99.90;;;;;;5101566;28;20485;-77
2021/11/15 10:40:07;;;;;;;16.40;9.98;;;8.30;99.90;;;;;;5086694;28;20077;-72
2021/11/15 10:42:40;;;;;;;17.95;10.10;;;8.30;99.90;;;;;;5101150;28;20426;-72
2021/11/15 10:45:10;;;;;;;19.90;10.43;;;8.30;99.90;;;;;;5100750;28;20462;-74
2021/11/15 10:47:42;;;;;;;17.73;9.57;;;8.30;99.90;;;;;;5103188;28;20047;-71
2021/11/15 10:50:31;;;;;;;20.30;9.32;;;8.30;99.90;;;;;;5105392;28;20039;-76
2021/11/15 10:53:02;;;;;;;17.65;9.27;;;8.30;99.90;;;;;;5102200;28;20024;-74
2021/11/15 10:55:34;;;;;;;16.13;9.07;;;8.30;99.90;;;;;;5103005;28;20059;-76
2021/11/15 10:58:00;;;;;;;19.27;9.98;;;8.30;99.90;;;;;;5078477;28;20124;-74
2021/11/15 11:00:36;;;;;;;16.75;8.60;;;8.40;99.90;;;;;;5096159;28;20056;-70
2021/11/15 11:03:24;;;;;;;17.02;8.98;;;8.40;99.90;;;;;;5095689;28;20478;-73
2021/11/15 11:05:52;;;;;;;17.33;8.77;;;8.30;99.90;;;;;;5095338;28;20032;-72
2021/11/15 11:08:22;;;;;;;17.92;8.80;;;8.30;99.90;;;;;;5094108;28;20069;-76
2021/11/15 11:10:55;;;;;;;19.90;9.50;;;8.40;99.90;;;;;;5095239;28;20036;-70
2021/11/15 11:13:24;;;;;;;17.02;8.35;;;8.40;99.90;;;;;;5093763;28;20470;-70
2021/11/15 11:15:52;;;;;;;15.38;7.90;;;8.40;99.90;;;;;;5077377;28;20024;-72
2021/11/15 11:18:35;;;;;;;17.98;8.63;;;8.40;99.90;;;;;;5077057;28;20026;-69
2021/11/15 11:26:26;;;;;;;15.73;6.55;;;8.20;99.90;;;;;;5094784;28;20115;-67
2021/11/15 11:28:57;;;;;;;12.85;7.18;;;8.20;99.90;;;;;;5094490;28;20056;-69
2021/11/15 11:31:23;;;;;;;14.73;7.28;;;8.10;99.90;;;;;;5077448;28;20043;-75
2021/11/15 11:33:49;;;;;;;14.63;7.18;;;8.10;99.90;;;;;;5093916;28;20153;-69
2021/11/15 11:36:15;;;;;;;14.77;6.50;;;8.10;99.90;;;;;;5094600;28;20055;-68
2021/11/15 11:38:42;;;;;;;13.45;6.63;;;8.10;99.90;;;;;;5095528;28;20043;-64
2021/11/15 11:41:09;;;;;;;14.15;7.28;;;8.10;99.90;;;;;;5082470;28;20075;-66
2021/11/15 11:43:35;;;;;;;17.38;7.85;;;8.10;99.90;;;;;;5098435;28;20053;-64
2021/11/15 11:46:01;;;;;;;14.23;6.90;;;8.10;99.90;;;;;;5082646;28;20043;-65
2021/11/15 11:48:26;;;;;;;13.35;6.97;;;8.00;99.90;;;;;;5101833;28;20530;-69
2021/11/15 11:50:55;;;;;;;13.27;6.32;;;8.00;99.90;;;;;;5101063;28;20036;-67
2021/11/15 11:53:28;;;;;;;11.05;6.32;;;7.90;99.90;;;;;;5100994;28;20024;-65
2021/11/15 11:55:54;;;;;;;12.35;5.97;;;7.90;99.90;;;;;;5100578;28;20051;-65
2021/11/15 11:58:25;;;;;;;20.30;7.88;;;7.90;99.90;;;;;;5082060;28;20020;-69
2021/11/15 12:01:18;;;;;;;16.02;7.70;;;7.90;99.90;;;;;;5098316;28;20046;-69
2021/11/15 12:04:16;;;;;;;16.20;7.68;;;8.00;99.90;;;;;;5097399;28;20069;-67
2021/11/15 12:06:43;;;;;;;15.45;6.35;;;8.00;99.90;;;;;;5081003;28;20024;-68
2021/11/15 12:09:08;;;;;;;18.25;8.50;;;8.00;99.90;;;;;;5082376;28;20028;-69
2021/11/15 12:11:43;;;;;;;15.73;8.10;;;8.00;99.90;;;;;;5098888;28;20050;-76
2021/11/15 12:14:11;;;;;;;17.20;8.30;;;8.00;99.90;;;;;;5095891;28;20096;-65
2021/11/15 12:17:09;;;;;;;15.70;6.97;;;8.00;99.90;;;;;;5093635;28;20522;-68
2021/11/15 12:19:52;;;;;;;15.18;7.35;;;8.00;99.90;;;;;;5096987;28;20012;-68
2021/11/15 12:22:21;;;;;;;14.57;7.20;;;7.90;99.90;;;;;;5095126;28;20024;-64
2021/11/15 12:25:08;;;;;;;16.33;8.20;;;7.90;99.90;;;;;;5077187;28;20126;-67
2021/11/15 12:27:46;;;;;;;19.02;8.48;;;7.90;99.90;;;;;;5095759;28;20038;-70
2021/11/15 12:30:34;;;;;;;18.02;8.98;;;7.90;99.90;;;;;;5099107;28;20064;-76
2021/11/15 12:33:20;;;;;;;18.25;8.10;;;7.90;99.90;;;;;;5093203;28;20024;-75
2021/11/15 12:35:55;;;;;;;18.35;8.73;;;7.90;99.90;;;;;;5093824;28;20024;-74
2021/11/15 12:38:40;;;;;;;15.13;8.40;;;7.90;99.90;;;;;;5093166;28;20028;-75
2021/11/15 12:41:18;;;;;;;18.27;8.57;;;8.00;99.90;;;;;;5095397;28;20383;-75
2021/11/15 12:44:04;;;;;;;18.85;8.90;;;8.00;99.90;;;;;;5094822;28;20035;-70
2021/11/15 12:46:42;;;;;;;15.63;9.02;;;7.90;99.90;;;;;;5080475;28;20056;-75
2021/11/15 12:49:22;;;;;;;21.90;9.45;;;7.90;99.90;;;;;;5093971;28;20032;-75
2021/11/15 12:52:13;;;;;;;23.17;10.27;;;7.90;99.90;;;;;;5092752;28;20024;-71
2021/11/15 12:55:07;;;;;;;22.60;10.18;;;7.80;99.90;;;;;;5094944;28;20069;-72